createdAt,value
2022-12-27T00:01:18.891Z,23.98
2022-12-27T00:03:45.760Z,15.63
2022-12-27T00:06:18.227Z,20.77
2022-12-27T00:08:46.072Z,19.85
2022-12-27T00:11:17.468Z,22.25
2022-12-27T00:13:44.977Z,17.88
2022-12-27T00:16:14.215Z,18.80
2022-12-27T00:18:41.814Z,18.75
2022-12-27T00:21:11.310Z,23.38
2022-12-27T00:23:40.750Z,16.75
2022-12-27T00:26:12.874Z,18.23
2022-12-27T00:28:39.408Z,15.98
2022-12-27T00:31:06.135Z,17.48
2022-12-27T00:33:35.566Z,16.73
2022-12-27T00:36:04.476Z,16.90
2022-12-27T00:38:32.289Z,16.33
2022-12-27T00:40:59.797Z,18.38
2022-12-27T00:43:26.710Z,21.27
2022-12-27T00:45:54.246Z,19.90
2022-12-27T00:48:20.913Z,16.35
2022-12-27T00:50:47.812Z,22.65
2022-12-27T00:53:14.415Z,21.75
2022-12-27T00:55:45.365Z,26.38
2022-12-27T00:58:12.057Z,20.30
2022-12-27T01:00:38.854Z,25.13
2022-12-27T01:03:05.529Z,23.52
2022-12-27T01:05:32.331Z,24.13
2022-12-27T01:07:58.886Z,19.65
2022-12-27T01:10:25.433Z,19.73
2022-12-27T01:12:51.981Z,21.65
2022-12-27T01:15:18.854Z,27.25
2022-12-27T01:17:45.514Z,14.30
2022-12-27T01:20:12.235Z,18.73
2022-12-27T01:22:38.894Z,18.52
2022-12-27T01:25:06.015Z,16.13
2022-12-27T01:27:32.499Z,13.98
2022-12-27T01:29:59.039Z,19.05
2022-12-27T01:32:25.658Z,16.05
2022-12-27T01:34:52.152Z,13.55
2022-12-27T01:37:18.823Z,17.67
2022-12-27T01:39:45.290Z,15.98
2022-12-27T01:42:35.486Z,13.18
2022-12-27T01:45:03.940Z,11.43
2022-12-27T01:47:42.474Z,11.32
2022-12-27T01:50:14.947Z,16.98
2022-12-27T01:52:53.365Z,11.65
2022-12-27T01:55:32.349Z,18.00
2022-12-27T01:58:09.353Z,13.82
2022-12-27T02:00:36.051Z,13.05
2022-12-27T02:03:05.867Z,13.68
2022-12-27T02:05:33.724Z,15.50
2022-12-27T02:08:20.428Z,11.32
2022-12-27T02:10:46.954Z,11.20
2022-12-27T02:13:15.306Z,10.25
2022-12-27T02:15:41.948Z,12.13
2022-12-27T02:18:08.498Z,8.77
2022-12-27T02:21:02.948Z,11.25
2022-12-27T02:24:05.232Z,9.10
2022-12-27T02:26:43.843Z,9.68
2022-12-27T02:29:37.781Z,9.77
2022-12-27T02:32:13.385Z,11.25
2022-12-27T02:34:45.069Z,10.60
2022-12-27T02:37:13.396Z,8.15
2022-12-27T02:39:45.602Z,11.23
2022-12-27T02:42:33.395Z,9.00
2022-12-27T02:45:18.618Z,11.48
2022-12-27T02:48:05.581Z,11.10
2022-12-27T02:51:19.882Z,10.18
2022-12-27T02:53:52.462Z,10.98
2022-12-27T02:57:05.797Z,17.10
2022-12-27T02:59:35.157Z,9.90
2022-12-27T03:02:34.348Z,10.38
2022-12-27T03:05:15.206Z,10.25
2022-12-27T03:08:01.447Z,10.50
2022-12-27T03:11:13.285Z,16.52
2022-12-27T03:14:05.835Z,12.77
2022-12-27T03:16:41.780Z,12.57
2022-12-27T03:19:58.958Z,8.65
2022-12-27T03:22:47.283Z,12.45
2022-12-27T03:25:28.577Z,9.25
2022-12-27T03:28:31.679Z,13.45
2022-12-27T03:31:24.730Z,10.35
2022-12-27T03:34:04.655Z,10.38
2022-12-27T03:36:52.499Z,14.35
2022-12-27T03:39:31.697Z,11.48
2022-12-27T03:42:21.971Z,10.48
2022-12-27T03:44:49.241Z,8.05
2022-12-27T03:47:27.719Z,8.65
2022-12-27T03:50:04.276Z,15.95
2022-12-27T03:52:57.829Z,14.95
2022-12-27T03:55:29.974Z,13.38
2022-12-27T03:57:59.751Z,12.55
2022-12-27T04:00:26.578Z,14.45
2022-12-27T04:02:53.236Z,13.32
2022-12-27T04:05:19.821Z,16.90
2022-12-27T04:08:04.700Z,12.00
2022-12-27T04:13:34.447Z,11.95
2022-12-27T04:16:19.394Z,12.52
2022-12-27T04:19:04.587Z,11.52
2022-12-27T04:21:49.651Z,9.77
2022-12-27T04:24:34.354Z,9.73
2022-12-27T04:27:20.499Z,8.45
2022-12-27T04:30:05.354Z,9.70
2022-12-27T04:35:16.805Z,11.75
2022-12-27T04:37:43.333Z,10.20
2022-12-27T04:40:28.828Z,11.02
2022-12-27T04:43:13.779Z,7.78
2022-12-27T04:45:59.138Z,10.35
2022-12-27T04:48:48.345Z,8.25
2022-12-27T04:51:34.060Z,7.15
2022-12-27T04:54:19.486Z,10.70
2022-12-27T04:56:46.090Z,7.63
2022-12-27T04:59:31.018Z,9.13
2022-12-27T05:04:32.053Z,7.85
2022-12-27T05:06:59.132Z,4.78
2022-12-27T05:09:44.325Z,6.85
2022-12-27T05:12:28.992Z,7.03
2022-12-27T05:14:55.479Z,9.90
2022-12-27T05:17:21.936Z,4.60
2022-12-27T05:19:48.444Z,6.38
2022-12-27T05:22:33.479Z,5.60
2022-12-27T05:25:18.479Z,4.65
2022-12-27T05:27:45.010Z,6.10
2022-12-27T05:30:12.040Z,3.55
2022-12-27T05:32:38.524Z,6.22
2022-12-27T05:35:05.524Z,6.80
2022-12-27T05:37:32.205Z,5.80
2022-12-27T05:39:58.709Z,3.92
2022-12-27T05:42:25.261Z,6.13
2022-12-27T05:44:51.830Z,3.08
2022-12-27T05:47:18.428Z,3.50
2022-12-27T05:49:44.892Z,4.60
2022-12-27T05:52:11.388Z,3.17
2022-12-27T05:54:37.879Z,3.55
2022-12-27T05:57:04.476Z,2.83
2022-12-27T05:59:30.969Z,3.03
2022-12-27T06:01:57.755Z,3.30
2022-12-27T06:04:24.383Z,3.83
2022-12-27T06:06:50.892Z,6.60
2022-12-27T06:09:17.460Z,3.33
2022-12-27T06:11:44.029Z,3.83
2022-12-27T06:14:10.488Z,2.83
2022-12-27T06:16:37.214Z,4.35
2022-12-27T06:19:04.401Z,2.70
2022-12-27T06:21:31.174Z,4.00
2022-12-27T06:23:57.691Z,4.95
2022-12-27T06:26:26.628Z,2.65
2022-12-27T06:28:55.658Z,3.70
2022-12-27T06:31:23.271Z,3.80
2022-12-27T06:33:51.481Z,6.13
2022-12-27T06:36:23.337Z,5.15
2022-12-27T06:38:50.649Z,6.72
2022-12-27T06:41:18.446Z,5.68
2022-12-27T06:43:46.512Z,6.30
2022-12-27T06:46:17.735Z,5.97
2022-12-27T06:48:45.324Z,3.53
2022-12-27T06:51:13.414Z,5.13
2022-12-27T06:53:40.335Z,4.60
2022-12-27T06:56:10.016Z,3.83
2022-12-27T06:58:36.736Z,33.47
2022-12-27T07:01:19.775Z,13.20
2022-12-27T07:03:55.644Z,19.42
2022-12-27T07:06:23.890Z,10.07
2022-12-27T07:08:51.146Z,4.65
2022-12-27T07:11:18.889Z,8.13
2022-12-27T07:13:48.257Z,10.90
2022-12-27T07:16:17.136Z,5.50
2022-12-27T07:18:44.547Z,5.45
2022-12-27T07:21:16.883Z,5.35
2022-12-27T07:23:45.008Z,8.67
2022-12-27T07:26:20.401Z,6.15
2022-12-27T07:28:47.416Z,6.53
2022-12-27T07:31:16.994Z,5.63
2022-12-27T07:33:44.664Z,5.45
2022-12-27T07:36:17.600Z,5.13
2022-12-27T07:38:44.741Z,3.92
2022-12-27T07:41:12.444Z,5.13
2022-12-27T07:43:40.012Z,5.75
2022-12-27T07:46:12.770Z,5.30
2022-12-27T07:48:40.294Z,3.40
2022-12-27T07:51:07.477Z,3.88
2022-12-27T07:53:34.623Z,6.22
2022-12-27T07:56:06.404Z,3.08
2022-12-27T07:58:37.392Z,5.82
2022-12-27T08:01:05.115Z,6.35
2022-12-27T08:03:32.150Z,5.90
2022-12-27T08:05:58.648Z,7.22
2022-12-27T08:08:30.503Z,5.57
2022-12-27T08:11:00.582Z,5.60
2022-12-27T08:13:32.276Z,6.03
2022-12-27T08:15:58.812Z,5.78
2022-12-27T08:18:25.499Z,3.42
2022-12-27T08:20:52.437Z,5.60
2022-12-27T08:23:18.908Z,3.90
2022-12-27T08:25:48.961Z,3.42
2022-12-27T08:28:17.645Z,3.20
2022-12-27T08:30:46.212Z,4.03
2022-12-27T08:33:12.823Z,3.20
2022-12-27T08:35:53.768Z,2.10
2022-12-27T08:38:21.361Z,3.15
2022-12-27T08:40:47.883Z,3.08
2022-12-27T08:43:14.641Z,6.72
2022-12-27T08:45:41.578Z,3.67
2022-12-27T08:48:08.659Z,6.38
2022-12-27T08:50:35.216Z,5.07
2022-12-27T08:53:03.620Z,2.90
2022-12-27T08:55:31.136Z,3.60
2022-12-27T08:58:02.411Z,2.65
2022-12-27T09:00:29.669Z,3.42
2022-12-27T09:02:57.195Z,6.07
2022-12-27T09:05:25.811Z,7.63
2022-12-27T09:07:52.555Z,5.18
2022-12-27T09:10:20.366Z,5.53
2022-12-27T09:12:47.352Z,6.72
2022-12-27T09:15:14.443Z,4.70
2022-12-27T09:17:41.298Z,3.60
2022-12-27T09:20:08.477Z,6.38
2022-12-27T09:22:35.713Z,4.53
2022-12-27T09:25:02.363Z,5.93
2022-12-27T09:27:28.908Z,5.57
2022-12-27T09:29:55.426Z,4.70
2022-12-27T09:32:21.953Z,5.05
2022-12-27T09:34:48.492Z,4.00
2022-12-27T09:37:15.704Z,4.38
2022-12-27T09:39:42.268Z,4.65
2022-12-27T09:45:33.870Z,10.25
2022-12-27T09:48:13.747Z,7.53
2022-12-27T09:50:51.203Z,5.70
2022-12-27T09:53:26.599Z,5.63
2022-12-27T09:55:56.193Z,5.32
2022-12-27T09:58:50.705Z,4.10
2022-12-27T10:01:26.185Z,4.95
2022-12-27T10:03:53.202Z,12.23
2022-12-27T10:06:22.817Z,7.65
2022-12-27T10:09:29.084Z,8.65
2022-12-27T10:11:58.217Z,4.03
2022-12-27T10:14:33.651Z,5.38
2022-12-27T10:17:13.704Z,3.60
2022-12-27T10:19:53.605Z,5.85
2022-12-27T10:22:42.862Z,5.53
2022-12-27T10:25:13.868Z,6.40
2022-12-27T10:27:41.670Z,4.13
2022-12-27T10:30:18.713Z,4.07
2022-12-27T10:32:46.140Z,6.45
2022-12-27T10:35:16.567Z,5.25
2022-12-27T10:37:44.481Z,6.43
2022-12-27T10:40:17.198Z,4.32
2022-12-27T10:43:19.594Z,3.10
2022-12-27T10:45:46.224Z,4.68
2022-12-27T10:48:25.135Z,6.07
2022-12-27T10:50:59.775Z,3.90
2022-12-27T10:53:38.244Z,2.55
2022-12-27T10:56:25.064Z,4.40
2022-12-27T10:58:58.825Z,3.45
2022-12-27T11:01:27.482Z,4.82
2022-12-27T11:04:19.389Z,2.63
2022-12-27T11:07:05.159Z,5.97
2022-12-27T11:09:33.850Z,4.68
2022-12-27T11:12:20.932Z,3.80
2022-12-27T11:14:55.191Z,2.90
2022-12-27T11:17:35.167Z,4.70
2022-12-27T11:20:16.461Z,7.47
2022-12-27T11:22:51.543Z,10.63
2022-12-27T11:25:18.414Z,4.82
2022-12-27T11:27:52.744Z,7.90
2022-12-27T11:30:22.724Z,7.05
2022-12-27T11:32:49.549Z,8.68
2022-12-27T11:35:19.277Z,12.32
2022-12-27T11:37:46.960Z,6.72
2022-12-27T11:40:23.033Z,8.13
2022-12-27T11:43:17.696Z,5.78
2022-12-27T11:45:51.083Z,4.82
2022-12-27T11:48:33.105Z,4.75
2022-12-27T11:51:23.006Z,6.50
2022-12-27T11:54:25.027Z,5.63
2022-12-27T11:57:15.246Z,7.43
2022-12-27T12:00:13.380Z,5.57
2022-12-27T12:02:42.580Z,4.30
2022-12-27T12:05:46.946Z,8.07
2022-12-27T12:08:31.803Z,6.90
2022-12-27T12:11:23.883Z,6.07
2022-12-27T12:14:31.573Z,5.80
2022-12-27T12:17:36.163Z,11.27
2022-12-27T12:20:11.775Z,5.75
2022-12-27T12:22:54.269Z,6.63
2022-12-27T12:25:49.532Z,6.38
2022-12-27T12:31:42.066Z,5.20
2022-12-27T12:34:17.483Z,6.25
2022-12-27T12:37:18.950Z,9.00
2022-12-27T12:40:15.054Z,7.82
2022-12-27T12:43:07.055Z,9.90
2022-12-27T12:45:54.450Z,6.50
2022-12-27T12:48:38.248Z,6.60
2022-12-27T12:51:21.119Z,10.95
2022-12-27T12:54:13.799Z,12.30
2022-12-27T12:57:06.545Z,10.73
2022-12-27T12:59:39.095Z,8.52
2022-12-27T13:02:18.182Z,9.40
2022-12-27T13:05:03.103Z,11.93
2022-12-27T13:10:18.270Z,11.40
2022-12-27T13:13:18.932Z,12.27
2022-12-27T13:16:06.641Z,15.07
2022-12-27T13:18:42.214Z,12.48
2022-12-27T13:21:42.977Z,10.30
2022-12-27T13:24:29.379Z,10.07
2022-12-27T13:27:39.538Z,11.00
2022-12-27T13:30:12.017Z,10.02
2022-12-27T13:33:06.168Z,11.68
2022-12-27T13:35:51.623Z,9.43
2022-12-27T13:38:18.093Z,9.52
2022-12-27T13:41:15.407Z,9.85
2022-12-27T13:43:52.219Z,10.75
2022-12-27T13:46:40.050Z,13.20
2022-12-27T13:49:41.796Z,12.43
2022-12-27T13:52:53.320Z,10.02
2022-12-27T13:55:42.445Z,10.93
2022-12-27T13:58:36.402Z,10.02
2022-12-27T14:01:29.955Z,12.10
2022-12-27T14:04:34.773Z,9.93
2022-12-27T14:07:11.252Z,11.70
2022-12-27T14:09:48.501Z,13.88
2022-12-27T14:12:36.674Z,10.23
2022-12-27T14:15:07.755Z,12.73
2022-12-27T14:17:55.778Z,14.68
2022-12-27T14:20:44.128Z,13.88
2022-12-27T14:23:39.010Z,10.75
2022-12-27T14:26:34.686Z,12.15
2022-12-27T14:29:26.082Z,11.50
2022-12-27T14:32:23.057Z,13.15
2022-12-27T14:35:15.975Z,12.75
2022-12-27T14:38:05.609Z,13.82
2022-12-27T14:40:34.917Z,13.65
2022-12-27T14:43:20.654Z,15.07
2022-12-27T14:46:24.131Z,13.07
2022-12-27T14:49:35.213Z,10.30
2022-12-27T14:52:32.292Z,13.77
2022-12-27T14:55:13.760Z,13.25
2022-12-27T14:57:49.098Z,12.32
2022-12-27T15:00:20.939Z,10.32
2022-12-27T15:03:09.308Z,11.18
2022-12-27T15:05:44.699Z,11.35
2022-12-27T15:08:32.704Z,12.35
2022-12-27T15:11:41.386Z,11.20
2022-12-27T15:14:40.527Z,10.45
2022-12-27T15:17:21.116Z,12.45
2022-12-27T15:19:47.579Z,12.48
2022-12-27T15:22:40.237Z,10.45
2022-12-27T15:25:15.381Z,14.18
2022-12-27T15:28:06.619Z,13.52
2022-12-27T15:30:58.281Z,12.90
2022-12-27T15:34:01.407Z,13.35
2022-12-27T15:36:48.586Z,10.82
2022-12-27T15:39:33.715Z,9.38
2022-12-27T15:42:09.322Z,9.75
2022-12-27T15:45:03.323Z,12.70
2022-12-27T15:47:38.820Z,11.45
2022-12-27T15:50:27.035Z,13.10
2022-12-27T15:53:12.293Z,9.20
2022-12-27T15:56:09.909Z,14.07
2022-12-27T15:58:37.025Z,9.52
2022-12-27T16:01:19.193Z,12.48
2022-12-27T16:03:51.208Z,10.70
2022-12-27T16:06:36.695Z,11.18
2022-12-27T16:09:24.704Z,11.90
2022-12-27T16:12:31.300Z,10.85
2022-12-27T16:15:32.887Z,9.88
2022-12-27T16:17:59.510Z,11.05
2022-12-27T16:20:26.307Z,10.40
2022-12-27T16:22:56.768Z,13.98
2022-12-27T16:25:32.010Z,11.65
2022-12-27T16:28:28.149Z,11.95
2022-12-27T16:30:59.597Z,10.80
2022-12-27T16:33:26.071Z,13.32
2022-12-27T16:36:11.429Z,15.32
2022-12-27T16:39:02.902Z,12.27
2022-12-27T16:41:53.950Z,15.85
2022-12-27T16:44:38.559Z,17.05
2022-12-27T16:49:57.709Z,15.93
2022-12-27T16:52:36.495Z,16.02
2022-12-27T16:55:15.556Z,17.33
2022-12-27T16:57:44.804Z,17.30
2022-12-27T17:00:11.388Z,19.23
2022-12-27T17:02:41.085Z,15.77
2022-12-27T17:05:16.619Z,17.48
2022-12-27T17:08:10.123Z,17.48
2022-12-27T17:10:44.714Z,17.00
2022-12-27T17:13:27.975Z,11.88
2022-12-27T17:16:00.584Z,14.15
2022-12-27T17:18:36.046Z,10.27
2022-12-27T17:21:30.478Z,11.43
2022-12-27T17:24:21.284Z,15.35
2022-12-27T17:27:15.755Z,9.52
2022-12-27T17:30:03.880Z,11.95
2022-12-27T17:33:07.952Z,13.00
2022-12-27T17:36:11.963Z,17.05
2022-12-27T17:38:47.589Z,14.85
2022-12-27T17:41:52.217Z,12.45
2022-12-27T17:44:38.594Z,10.77
2022-12-27T17:47:26.962Z,12.85
2022-12-27T17:49:54.413Z,15.13
2022-12-27T17:52:44.274Z,12.02
2022-12-27T17:55:48.002Z,15.27
2022-12-27T17:58:16.821Z,10.38
2022-12-27T18:00:59.470Z,15.52
2022-12-27T18:03:36.061Z,13.60
2022-12-27T18:06:02.928Z,11.85
2022-12-27T18:08:33.926Z,16.05
2022-12-27T18:11:03.052Z,18.48
2022-12-27T18:13:36.294Z,16.98
2022-12-27T18:16:14.564Z,24.58
2022-12-27T18:18:44.810Z,21.77
2022-12-27T18:21:23.339Z,18.42
2022-12-27T18:23:52.839Z,19.75
2022-12-27T18:26:30.202Z,19.10
2022-12-27T18:28:56.849Z,18.95
2022-12-27T18:31:39.467Z,21.52
2022-12-27T18:34:20.031Z,20.95
2022-12-27T18:37:02.344Z,17.27
2022-12-27T18:39:35.097Z,20.05
2022-12-27T18:42:12.404Z,19.52
2022-12-27T18:44:49.490Z,21.83
2022-12-27T18:47:27.561Z,17.73
2022-12-27T18:50:05.853Z,18.27
2022-12-27T18:52:39.465Z,16.95
2022-12-27T18:55:21.936Z,20.27
2022-12-27T18:57:48.516Z,19.33
2022-12-27T19:00:17.989Z,18.63
2022-12-27T19:02:45.522Z,16.63
2022-12-27T19:05:20.930Z,16.75
2022-12-27T19:08:07.790Z,17.85
2022-12-27T19:10:34.804Z,22.73
2022-12-27T19:13:01.824Z,18.20
2022-12-27T19:15:42.699Z,20.58
2022-12-27T19:18:24.537Z,23.00
2022-12-27T19:20:56.141Z,24.05
2022-12-27T19:23:35.713Z,21.15
2022-12-27T19:26:17.690Z,20.55
2022-12-27T19:28:45.553Z,21.35
2022-12-27T19:31:21.828Z,22.65
2022-12-27T19:33:48.553Z,21.60
2022-12-27T19:36:15.297Z,17.52
2022-12-27T19:38:47.620Z,22.13
2022-12-27T19:41:14.957Z,24.60
2022-12-27T19:43:46.479Z,21.00
2022-12-27T19:46:14.638Z,25.65
2022-12-27T19:48:41.398Z,28.33
2022-12-27T19:51:13.315Z,27.00
2022-12-27T19:53:42.245Z,29.10
2022-12-27T19:56:09.476Z,23.50
2022-12-27T19:58:36.304Z,23.08
2022-12-27T20:01:04.045Z,20.83
2022-12-27T20:03:30.648Z,21.23
2022-12-27T20:06:14.483Z,22.38
2022-12-27T20:08:48.884Z,20.02
2022-12-27T20:11:18.916Z,20.25
2022-12-27T20:13:45.653Z,33.63
2022-12-27T20:16:14.251Z,41.00
2022-12-27T20:18:42.570Z,36.67
2022-12-27T20:21:27.039Z,31.73
2022-12-27T20:23:53.581Z,34.47
2022-12-27T20:26:22.740Z,32.88
2022-12-27T20:28:50.951Z,36.50
2022-12-27T20:31:21.146Z,38.40
2022-12-27T20:33:55.638Z,34.75
2022-12-27T20:38:49.456Z,42.83
2022-12-27T20:41:19.532Z,34.88
2022-12-27T20:43:46.357Z,33.67
2022-12-27T20:46:15.649Z,33.22
2022-12-27T20:48:44.496Z,40.83
2022-12-27T20:51:14.432Z,37.05
2022-12-27T20:53:41.101Z,37.15
2022-12-27T20:56:08.950Z,34.60
2022-12-27T20:58:36.015Z,36.30
2022-12-27T21:01:11.375Z,36.70
2022-12-27T21:03:38.464Z,34.55
2022-12-27T21:06:26.286Z,34.08
2022-12-27T21:08:57.306Z,36.47
2022-12-27T21:11:32.286Z,48.03
2022-12-27T21:14:00.905Z,46.58
2022-12-27T21:16:30.365Z,43.92
2022-12-27T21:18:58.016Z,46.92
2022-12-27T21:21:28.630Z,47.42
2022-12-27T21:23:56.425Z,43.90
2022-12-27T21:26:25.855Z,46.60
2022-12-27T21:28:53.661Z,46.08
2022-12-27T21:31:21.119Z,44.88
2022-12-27T21:33:48.548Z,42.22
2022-12-27T21:36:17.893Z,49.50
2022-12-27T21:38:44.614Z,40.90
2022-12-27T21:41:14.314Z,40.58
2022-12-27T21:43:41.623Z,40.50
2022-12-27T21:46:19.849Z,40.60
2022-12-27T21:48:47.119Z,39.47
2022-12-27T21:51:16.627Z,36.15
2022-12-27T21:53:43.976Z,38.22
2022-12-27T21:56:13.310Z,26.25
2022-12-27T21:58:40.805Z,23.48
2022-12-27T22:01:12.895Z,23.95
2022-12-27T22:03:41.923Z,22.38
2022-12-27T22:06:28.731Z,26.50
2022-12-27T22:09:00.774Z,28.15
2022-12-27T22:11:28.679Z,27.17
2022-12-27T22:13:56.251Z,21.58
2022-12-27T22:16:25.343Z,21.40
2022-12-27T22:18:52.191Z,21.48
2022-12-27T22:21:21.939Z,22.05
2022-12-27T22:23:51.705Z,17.73
2022-12-27T22:26:21.401Z,19.83
2022-12-27T22:28:48.444Z,21.90
2022-12-27T22:31:18.123Z,25.17
2022-12-27T22:33:44.889Z,23.67
2022-12-27T22:36:14.303Z,24.05
2022-12-27T22:38:41.406Z,28.42
2022-12-27T22:41:25.973Z,27.13
2022-12-27T22:43:55.592Z,32.80
2022-12-27T22:46:22.308Z,41.42
2022-12-27T22:48:51.271Z,63.28
2022-12-27T22:51:20.952Z,60.65
2022-12-27T22:53:48.115Z,69.75
2022-12-27T22:56:16.455Z,67.80
2022-12-27T22:58:43.756Z,56.90
2022-12-27T23:01:15.155Z,57.47
2022-12-27T23:03:42.440Z,40.90
2022-12-27T23:06:12.151Z,26.80
2022-12-27T23:08:39.798Z,25.75
2022-12-27T23:11:16.485Z,29.98
2022-12-27T23:13:42.985Z,24.42
2022-12-27T23:16:09.782Z,19.08
2022-12-27T23:18:37.425Z,17.38
2022-12-27T23:21:20.085Z,17.85
2022-12-27T23:23:50.452Z,18.70
2022-12-27T23:26:19.832Z,19.63
2022-12-27T23:28:47.900Z,19.38
2022-12-27T23:31:15.621Z,18.80
2022-12-27T23:33:43.421Z,20.77
2022-12-27T23:36:10.825Z,22.33
2022-12-27T23:38:37.674Z,23.80
2022-12-27T23:41:07.456Z,23.75
2022-12-27T23:43:53.699Z,26.00
2022-12-27T23:46:25.187Z,25.00
2022-12-27T23:48:52.206Z,24.83
2022-12-27T23:51:19.239Z,25.23
2022-12-27T23:53:46.013Z,22.20
2022-12-27T23:56:26.972Z,23.52
2022-12-27T23:58:55.541Z,23.35
